Time;durP1;ratioP1;P1;durP2;ratioP2;P2;SDS_P1;SDS_P2;PMS_P1;PMS_P2;Temp;Humidity;BMP_temperature;BMP_pressure;BME280_temperature;BME280_humidity;BME280_pressure;Samples;Min_cycle;Max_cycle;Signal;HPM_P1;HPM_P2
2021/08/29 00:01:17;;;;;;;1.33;1.08;;;23.60;99.90;;;;;;20689836;28;20194;-77
2021/08/29 00:11:21;;;;;;;2.55;1.15;;;23.70;99.90;;;;;;20704925;28;20333;-78
2021/08/29 00:21:26;;;;;;;1.17;0.80;;;23.90;99.90;;;;;;20689754;28;20190;-84
2021/08/29 00:31:30;;;;;;;1.52;0.93;;;23.90;99.90;;;;;;20657991;28;20223;-79
2021/08/29 00:41:36;;;;;;;0.68;0.68;;;23.90;99.90;;;;;;20678212;28;20402;-78
2021/08/29 00:51:40;;;;;;;0.85;0.68;;;24.00;99.90;;;;;;20680868;28;20278;-74
2021/08/29 01:01:52;;;;;;;3.72;1.48;;;23.90;99.90;;;;;;20703655;28;20191;-74
2021/08/29 01:11:57;;;;;;;2.35;0.82;;;23.80;99.90;;;;;;20704726;28;20397;-75
2021/08/29 01:22:04;;;;;;;2.25;0.65;;;23.80;99.90;;;;;;20697674;28;20202;-80
2021/08/29 01:32:10;;;;;;;1.10;0.70;;;23.70;99.90;;;;;;20701696;28;20231;-81
2021/08/29 01:42:14;;;;;;;1.10;0.68;;;23.80;99.90;;;;;;20699699;28;20191;-78
2021/08/29 01:52:19;;;;;;;2.47;0.70;;;23.80;99.90;;;;;;20684797;28;20230;-79
2021/08/29 02:02:23;;;;;;;1.15;0.98;;;23.80;99.90;;;;;;20692554;23;20245;-70
2021/08/29 02:12:33;;;;;;;0.90;0.90;;;23.70;99.90;;;;;;20654559;28;20226;-72
2021/08/29 02:22:37;;;;;;;3.78;1.30;;;23.50;99.90;;;;;;20695926;28;20203;-71
2021/08/29 02:32:43;;;;;;;1.63;1.40;;;23.50;99.90;;;;;;20692427;28;20233;-73
2021/08/29 02:42:48;;;;;;;1.80;0.70;;;23.50;99.90;;;;;;20697516;28;20509;-72
2021/08/29 02:52:53;;;;;;;1.73;0.83;;;23.40;99.90;;;;;;20691020;28;20280;-71
2021/08/29 03:02:57;;;;;;;0.30;0.30;;;23.40;99.90;;;;;;20704685;23;20241;-78
2021/08/29 03:13:04;;;;;;;0.80;0.63;;;23.40;99.90;;;;;;20677395;28;20235;-78
2021/08/29 03:23:08;;;;;;;0.40;0.40;;;23.30;99.90;;;;;;20637554;28;20210;-79
2021/08/29 03:33:13;;;;;;;0.87;0.60;;;23.30;99.90;;;;;;20671733;28;20235;-77
2021/08/29 03:43:16;;;;;;;1.85;0.82;;;23.20;99.90;;;;;;20596324;28;20219;-77
2021/08/29 03:53:22;;;;;;;7.23;0.97;;;23.00;99.90;;;;;;20641764;28;20231;-76
2021/08/29 04:03:26;;;;;;;1.43;0.63;;;22.90;99.90;;;;;;20681948;28;20223;-76
2021/08/29 04:13:33;;;;;;;0.20;0.20;;;22.90;99.90;;;;;;20706467;28;20289;-76
2021/08/29 04:23:37;;;;;;;1.43;0.90;;;23.00;99.90;;;;;;20698917;28;20206;-77
2021/08/29 04:33:42;;;;;;;0.73;0.60;;;22.90;99.90;;;;;;20707312;28;20234;-76
2021/08/29 04:43:46;;;;;;;6.10;1.23;;;23.10;99.90;;;;;;20704735;28;20221;-76
2021/08/29 04:53:51;;;;;;;1.90;0.63;;;23.10;99.90;;;;;;20704587;28;20230;-75
2021/08/29 05:03:55;;;;;;;0.75;0.70;;;23.10;99.90;;;;;;20701748;28;20244;-77
2021/08/29 05:14:00;;;;;;;1.40;1.20;;;23.00;99.90;;;;;;20702249;28;20227;-75
2021/08/29 05:24:04;;;;;;;3.80;0.57;;;23.00;99.90;;;;;;20701345;28;20608;-79
2021/08/29 05:34:09;;;;;;;0.60;0.60;;;22.90;99.90;;;;;;20702269;28;20223;-75
2021/08/29 05:44:13;;;;;;;2.27;1.87;;;23.00;99.90;;;;;;20699664;28;20218;-75
2021/08/29 05:54:18;;;;;;;2.13;1.93;;;23.00;99.90;;;;;;20698740;28;20312;-75
2021/08/29 06:04:22;;;;;;;3.70;1.47;;;23.10;99.90;;;;;;20697806;28;20309;-75
2021/08/29 06:14:27;;;;;;;6.23;2.37;;;23.10;99.90;;;;;;20694768;28;20241;-74
2021/08/29 06:24:31;;;;;;;2.50;1.37;;;23.20;99.90;;;;;;20678518;28;20313;-75
2021/08/29 06:34:36;;;;;;;1.90;0.67;;;23.30;99.90;;;;;;20695109;28;20233;-76
2021/08/29 06:44:39;;;;;;;3.67;1.00;;;23.50;99.90;;;;;;20694713;28;20205;-78
2021/08/29 06:54:44;;;;;;;1.77;0.43;;;23.70;99.90;;;;;;20670122;28;20227;-81
2021/08/29 07:04:49;;;;;;;1.42;0.57;;;23.90;99.90;;;;;;20639652;28;20223;-77
2021/08/29 07:14:54;;;;;;;8.35;1.48;;;24.30;99.90;;;;;;20604684;28;20230;-77
2021/08/29 07:24:57;;;;;;;0.63;0.50;;;24.50;99.90;;;;;;20637457;28;20195;-75
2021/08/29 07:35:02;;;;;;;3.50;1.05;;;24.60;99.90;;;;;;20642354;28;20230;-76
2021/08/29 07:45:07;;;;;;;0.40;0.20;;;25.00;99.90;;;;;;20653002;28;20207;-80
2021/08/29 07:55:12;;;;;;;7.20;0.85;;;24.90;99.90;;;;;;20645303;28;20216;-75
2021/08/29 08:05:15;;;;;;;1.85;1.50;;;25.20;99.90;;;;;;20646515;28;20219;-83
2021/08/29 08:15:21;;;;;;;1.80;1.45;;;25.40;99.90;;;;;;22194437;23;20705;-78
2021/08/29 08:25:24;;;;;;;4.97;0.95;;;25.60;99.90;;;;;;22187573;23;20236;-84
2021/08/29 08:35:29;;;;;;;3.83;0.50;;;25.80;99.90;;;;;;20543025;28;20231;-87
2021/08/29 08:45:34;;;;;;;2.13;0.75;;;26.10;99.90;;;;;;20543633;28;20531;-82
2021/08/29 08:55:40;;;;;;;6.82;0.85;;;26.30;99.90;;;;;;20539546;28;20224;-80
2021/08/29 09:05:43;;;;;;;0.52;0.40;;;26.20;99.90;;;;;;20537600;28;20218;-76
2021/08/29 09:15:48;;;;;;;0.50;0.50;;;26.70;99.90;;;;;;20539845;28;20869;-83
2021/08/29 09:25:55;;;;;;;0.25;0.22;;;27.00;99.90;;;;;;20581212;28;20242;-79
2021/08/29 09:36:00;;;;;;;1.15;0.95;;;26.80;99.90;;;;;;20619954;28;20230;-78
2021/08/29 09:46:08;;;;;;;0.70;0.60;;;26.40;99.90;;;;;;20613811;28;20192;-84
2021/08/29 09:56:30;;;;;;;0.73;0.63;;;26.40;99.90;;;;;;20621125;28;20227;-86
2021/08/29 10:06:35;;;;;;;0.40;0.35;;;26.20;99.90;;;;;;20614391;28;20551;-76
2021/08/29 10:16:40;;;;;;;1.83;0.63;;;26.40;99.90;;;;;;20613746;28;20520;-81
2021/08/29 10:26:47;;;;;;;1.10;0.75;;;26.60;99.90;;;;;;20613105;28;20627;-80
2021/08/29 10:36:54;;;;;;;0.55;0.55;;;26.60;99.90;;;;;;20616312;28;20282;-85
2021/08/29 10:46:58;;;;;;;0.63;0.55;;;26.80;99.90;;;;;;20617159;28;20191;-85
2021/08/29 10:57:31;;;;;;;0.38;0.22;;;27.20;99.90;;;;;;20604046;28;20370;-82
2021/08/29 11:07:43;;;;;;;0.60;0.43;;;27.30;99.90;;;;;;20584980;28;20658;-81
2021/08/29 11:18:01;;;;;;;0.90;0.90;;;27.90;99.90;;;;;;20617418;28;20258;-80
2021/08/29 11:28:06;;;;;;;0.30;0.13;;;28.90;99.90;;;;;;20552880;28;20243;-79
2021/08/29 11:38:14;;;;;;;0.95;0.90;;;29.70;99.90;;;;;;20512494;28;20680;-78
2021/08/29 11:48:26;;;;;;;0.68;0.60;;;29.30;99.90;;;;;;20533830;28;20311;-83
2021/08/29 11:58:32;;;;;;;0.43;0.43;;;28.40;99.90;;;;;;20533008;28;20192;-79
2021/08/29 12:08:44;;;;;;;0.50;0.30;;;29.10;99.90;;;;;;20557625;28;20330;-84
2021/08/29 12:18:51;;;;;;;0.82;0.57;;;28.60;99.90;;;;;;20540490;28;20630;-81
2021/08/29 12:29:02;;;;;;;1.10;0.65;;;28.80;99.90;;;;;;20551872;28;20235;-80
2021/08/29 12:39:12;;;;;;;1.13;0.68;;;30.80;99.90;;;;;;20529960;28;20636;-82
2021/08/29 12:49:15;;;;;;;0.40;0.40;;;30.00;99.90;;;;;;20544671;28;20315;-79
2021/08/29 12:59:27;;;;;;;2.63;0.52;;;28.80;99.90;;;;;;20525487;28;20204;-83
2021/08/29 13:09:32;;;;;;;0.60;0.32;;;27.80;99.90;;;;;;20510896;28;20254;-81
2021/08/29 13:19:37;;;;;;;4.10;0.40;;;27.60;99.90;;;;;;20480381;28;20681;-82
2021/08/29 13:29:43;;;;;;;1.88;0.70;;;27.20;99.90;;;;;;20537603;28;20359;-84
2021/08/29 13:39:52;;;;;;;1.10;0.43;;;26.50;99.90;;;;;;20550232;28;20200;-81
2021/08/29 13:49:56;;;;;;;0.52;0.32;;;26.50;99.90;;;;;;20549246;28;20585;-82
2021/08/29 14:00:01;;;;;;;0.88;0.30;;;26.40;99.90;;;;;;20562458;28;20198;-82
2021/08/29 14:10:06;;;;;;;2.90;1.55;;;26.00;99.90;;;;;;20622683;28;20233;-85
2021/08/29 14:20:12;;;;;;;0.65;0.35;;;26.00;99.90;;;;;;20618707;28;20310;-87
2021/08/29 14:30:15;;;;;;;0.20;0.15;;;26.30;99.90;;;;;;20616514;28;20607;-82
2021/08/29 14:40:23;;;;;;;1.60;0.55;;;28.40;99.90;;;;;;20598780;28;20692;-82
2021/08/29 14:50:27;;;;;;;0.43;0.43;;;30.30;99.90;;;;;;20610864;28;20227;-78
2021/08/29 15:00:32;;;;;;;1.75;0.63;;;28.30;99.90;;;;;;20605025;28;20203;-81
2021/08/29 15:10:35;;;;;;;2.65;0.40;;;27.30;99.90;;;;;;20612160;28;20712;-81
2021/08/29 15:20:41;;;;;;;0.75;0.47;;;27.50;99.90;;;;;;20613082;28;20810;-83
2021/08/29 15:30:45;;;;;;;6.32;0.73;;;27.70;99.90;;;;;;20602668;28;20230;-83
2021/08/29 15:40:50;;;;;;;0.30;0.30;;;27.40;99.90;;;;;;20611747;28;20334;-77
2021/08/29 15:50:54;;;;;;;0.50;0.40;;;27.10;99.90;;;;;;20617885;28;20211;-82
2021/08/29 16:00:59;;;;;;;0.68;0.60;;;27.40;99.90;;;;;;20625314;28;20531;-80
2021/08/29 16:11:03;;;;;;;2.05;1.08;;;28.20;99.90;;;;;;20618981;28;20441;-84
2021/08/29 16:21:08;;;;;;;2.17;0.60;;;27.70;99.90;;;;;;20624636;28;20234;-78
2021/08/29 16:31:12;;;;;;;2.05;0.80;;;27.50;99.90;;;;;;20625990;28;20227;-82
2021/08/29 16:41:17;;;;;;;9.43;5.97;;;27.40;99.90;;;;;;20620320;28;20203;-81
2021/08/29 16:51:20;;;;;;;1.75;0.45;;;27.30;99.90;;;;;;20626008;28;20692;-83
2021/08/29 17:01:32;;;;;;;0.30;0.28;;;26.80;99.90;;;;;;20622217;28;20645;-82
2021/08/29 17:11:37;;;;;;;0.40;0.30;;;26.30;99.90;;;;;;20623238;28;20231;-83
2021/08/29 17:21:42;;;;;;;0.70;0.65;;;26.10;99.90;;;;;;20619011;28;20696;-85
2021/08/29 17:31:45;;;;;;;0.95;0.50;;;26.00;99.90;;;;;;20555077;28;20224;-83
2021/08/29 17:41:51;;;;;;;0.60;0.43;;;25.80;99.90;;;;;;20539763;28;20240;-81
2021/08/29 17:51:54;;;;;;;0.95;0.60;;;25.80;99.90;;;;;;20536025;28;20692;-73
2021/08/29 18:02:01;;;;;;;1.02;0.63;;;25.50;99.90;;;;;;20570390;28;20272;-79
2021/08/29 18:12:06;;;;;;;0.73;0.65;;;25.30;99.90;;;;;;20617194;28;20226;-81
2021/08/29 18:22:12;;;;;;;0.55;0.28;;;25.10;99.90;;;;;;20612016;28;20263;-80
2021/08/29 18:32:15;;;;;;;3.28;2.25;;;24.90;99.90;;;;;;20599834;28;20219;-74
2021/08/29 18:42:21;;;;;;;1.10;0.68;;;24.60;99.90;;;;;;20613899;28;20210;-78
2021/08/29 18:52:24;;;;;;;0.35;0.20;;;24.50;99.90;;;;;;20614464;28;20251;-74
2021/08/29 19:02:30;;;;;;;0.55;0.40;;;24.40;99.90;;;;;;20614174;28;20207;-80
2021/08/29 19:12:36;;;;;;;3.40;0.82;;;24.40;99.90;;;;;;20612874;28;20238;-79
2021/08/29 19:22:41;;;;;;;0.50;0.30;;;24.20;99.90;;;;;;20627705;28;20241;-85
2021/08/29 19:32:45;;;;;;;3.53;2.03;;;24.20;99.90;;;;;;20631076;28;20289;-79
2021/08/29 19:42:51;;;;;;;6.90;0.90;;;24.10;99.90;;;;;;20628740;28;20184;-79
2021/08/29 19:52:54;;;;;;;5.45;0.95;;;24.00;99.90;;;;;;20625142;28;20219;-78
2021/08/29 20:03:01;;;;;;;0.65;0.55;;;24.00;99.90;;;;;;20624918;28;20211;-80
2021/08/29 20:13:05;;;;;;;2.67;0.37;;;23.80;99.90;;;;;;20621939;28;20223;-81
2021/08/29 20:23:10;;;;;;;0.40;0.40;;;23.80;99.90;;;;;;20621044;28;20232;-77
2021/08/29 20:33:15;;;;;;;0.50;0.30;;;23.20;99.90;;;;;;20620215;28;21034;-81
2021/08/29 20:43:20;;;;;;;1.53;0.87;;;22.90;99.90;;;;;;20616572;28;20192;-77
2021/08/29 20:53:24;;;;;;;0.60;0.60;;;22.70;99.90;;;;;;20620348;28;20314;-78
2021/08/29 21:03:30;;;;;;;1.03;0.63;;;22.70;99.90;;;;;;20617466;28;20214;-76
2021/08/29 21:13:34;;;;;;;0.67;0.50;;;22.40;99.90;;;;;;20616907;28;20685;-78
2021/08/29 21:23:39;;;;;;;2.00;0.40;;;22.30;99.90;;;;;;20608979;28;20243;-81
2021/08/29 21:33:42;;;;;;;0.33;0.30;;;22.00;99.90;;;;;;20618155;28;20227;-83
2021/08/29 21:43:48;;;;;;;0.33;0.23;;;22.10;99.90;;;;;;20614428;28;20198;-80
2021/08/29 21:53:52;;;;;;;0.20;0.10;;;21.90;99.90;;;;;;20618030;28;20231;-76
2021/08/29 22:03:57;;;;;;;0.40;0.10;;;21.80;99.90;;;;;;20613411;28;20199;-76
2021/08/29 22:14:00;;;;;;;0.30;0.20;;;21.80;99.90;;;;;;20608161;28;21003;-77
2021/08/29 22:24:06;;;;;;;0.47;0.33;;;21.80;99.90;;;;;;20612634;28;20227;-78
2021/08/29 22:34:10;;;;;;;3.83;0.47;;;21.80;99.90;;;;;;20612476;28;20228;-77
2021/08/29 22:44:15;;;;;;;17.10;1.17;;;21.60;99.90;;;;;;20609571;28;20214;-84
2021/08/29 22:54:18;;;;;;;0.60;0.40;;;21.50;99.90;;;;;;20613290;28;20242;-82
2021/08/29 23:04:23;;;;;;;29.57;1.10;;;21.60;99.90;;;;;;20614588;28;20226;-81
2021/08/29 23:14:27;;;;;;;0.50;0.43;;;21.50;99.90;;;;;;20612090;28;20227;-87
2021/08/29 23:24:32;;;;;;;0.23;0.13;;;21.60;99.90;;;;;;20581357;28;20367;-80
2021/08/29 23:34:35;;;;;;;0.20;0.10;;;21.60;99.90;;;;;;20523756;28;20235;-78
2021/08/29 23:44:40;;;;;;;4.53;0.50;;;21.70;99.90;;;;;;20531371;28;20571;-77
2021/08/29 23:54:44;;;;;;;1.00;0.93;;;21.60;99.90;;;;;;20524997;28;20230;-75
